< < Back
Terminal Aerodrome Forecast


Current Version              Previous Versions:   1  2  3  4  5  6  7  8  9  

Terminal Aerodrome Forecast

882
FTUS44 KBMX 242339
TAFTCL
TAF
KTCL 242339Z 2500/2524 VRB03KT P6SM SCT050 SCT250=

Latest METAR

285
SAUS70 KWBC 251600 RRM
MTRTCL
METAR KTCL 251553Z 00000KT 10SM FEW070 31/24 A3016 RMK AO2 SLP211
T03060239


USA.gov is the U.S. government's official web portal to all federal, state and local government web resources and services.